Time;durP1;ratioP1;P1;durP2;ratioP2;P2;SDS_P1;SDS_P2;PMS_P1;PMS_P2;Temp;Humidity;BMP_temperature;BMP_pressure;BME280_temperature;BME280_humidity;BME280_pressure;Samples;Min_cycle;Max_cycle;Signal;HPM_P1;HPM_P2
2020/12/07 00:00:06;;;;;;;;;;;;;;;;;;6159988;23;1125;-80
2020/12/07 00:02:32;;;;;;;;;;;;;;;;;;6158285;23;1171;-81
2020/12/07 00:04:58;;;;;;;;;;;;;;;;;;6133756;23;1432;-80
2020/12/07 00:07:26;;;;;;;;;;;;;;;;;;6156464;23;1893;-80
2020/12/07 00:09:55;;;;;;;;;;;;;;;;;;6158488;23;1109;-81
2020/12/07 00:12:26;;;;;;;;;;;;;;;;;;6159132;23;1630;-79
2020/12/07 00:14:54;;;;;;;;;;;;;;;;;;6158251;23;1396;-82
2020/12/07 00:17:20;;;;;;;;;;;;;;;;;;6132701;23;1033;-79
2020/12/07 00:19:48;;;;;;;;;;;;;;;;;;6158751;23;1428;-80
2020/12/07 00:22:20;;;;;;;;;;;;;;;;;;6157899;23;1356;-80
2020/12/07 00:24:46;;;;;;;;;;;;;;;;;;6159834;23;1239;-80
2020/12/07 00:27:13;;;;;;;;;;;;;;;;;;6157201;23;1901;-81
2020/12/07 00:29:39;;;;;;;;;;;;;;;;;;6131432;23;1448;-80
2020/12/07 00:32:06;;;;;;;;;;;;;;;;;;6157261;23;1224;-80
2020/12/07 00:34:34;;;;;;;;;;;;;;;;;;6158145;23;1178;-81
2020/12/07 00:37:02;;;;;;;;;;;;;;;;;;6159030;23;1121;-80
2020/12/07 00:39:30;;;;;;;;;;;;;;;;;;6156776;23;1603;-81
2020/12/07 00:42:00;;;;;;;;;;;;;;;;;;6159112;23;1120;-80
2020/12/07 00:44:28;;;;;;;;;;;;;;;;;;6133979;23;1317;-81
2020/12/07 00:46:58;;;;;;;;;;;;;;;;;;6159738;23;1881;-80
2020/12/07 00:49:28;;;;;;;;;;;;;;;;;;6133197;23;1308;-80
2020/12/07 00:51:56;;;;;;;;;;;;;;;;;;6160554;23;1640;-80
2020/12/07 00:54:22;;;;;;;;;;;;;;;;;;6153501;23;1094;-80
2020/12/07 00:56:52;;;;;;;;;;;;;;;;;;6153381;23;1452;-80
2020/12/07 00:59:18;;;;;;;;;;;;;;;;;;6127522;23;1334;-80
2020/12/07 01:01:44;;;;;;;;;;;;;;;;;;6155966;23;1403;-80
2020/12/07 01:04:14;;;;;;;;;;;;;;;;;;6159453;23;1504;-81
2020/12/07 01:09:23;;;;;;;;;;;;;;;;;;6160242;23;1759;-79
2020/12/07 01:11:54;;;;;;;;;;;;;;;;;;6134714;23;1060;-80
2020/12/07 01:14:25;;;;;;;;;;;;;;;;;;6135459;23;1472;-81
2020/12/07 01:16:52;;;;;;;;;;;;;;;;;;6160176;23;1120;-80
2020/12/07 01:19:22;;;;;;;;;;;;;;;;;;6159862;23;1455;-81
2020/12/07 01:21:55;;;;;;;;;;;;;;;;;;6135963;23;1427;-81
2020/12/07 01:24:27;;;;;;;;;;;;;;;;;;6161770;23;1012;-81
2020/12/07 01:26:56;;;;;;;;;;;;;;;;;;6164292;23;1878;-81
2020/12/07 01:29:24;;;;;;;;;;;;;;;;;;6162167;23;1207;-80
2020/12/07 01:31:51;;;;;;;;;;;;;;;;;;6163026;23;1598;-80
2020/12/07 01:34:18;;;;;;;;;;;;;;;;;;6164393;23;1528;-81
2020/12/07 01:36:56;;;;;;;;;;;;;;;;;;6161951;23;1106;-81
2020/12/07 01:39:34;;;;;;;;;;;;;;;;;;6162973;23;1074;-80
2020/12/07 01:42:02;;;;;;;;;;;;;;;;;;6165200;23;1139;-81
2020/12/07 01:44:34;;;;;;;;;;;;;;;;;;6165296;23;1053;-81
2020/12/07 01:47:11;;;;;;;;;;;;;;;;;;6164673;23;1928;-81
2020/12/07 01:49:48;;;;;;;;;;;;;;;;;;6166782;23;1479;-80
2020/12/07 01:52:16;;;;;;;;;;;;;;;;;;6166855;23;1291;-81
2020/12/07 01:54:51;;;;;;;;;;;;;;;;;;6168127;23;1322;-82
2020/12/07 02:02:50;;;;;;;;;;;;;;;;;;6172244;23;1561;-81
2020/12/07 02:05:33;;;;;;;;;;;;;;;;;;6172551;23;1115;-81
2020/12/07 02:11:48;;;;;;;;;;;;;;;;;;6173673;23;1673;-81
2020/12/07 02:14:42;;;;;;;;;;;;;;;;;;6173632;23;1073;-81
2020/12/07 02:20:16;;;;;;;;;;;;;;;;;;6174018;23;1480;-81
2020/12/07 02:22:53;;;;;;;;;;;;;;;;;;6164342;23;1153;-82
2020/12/07 02:25:33;;;;;;;;;;;;;;;;;;6175134;23;1122;-81
2020/12/07 02:28:11;;;;;;;;;;;;;;;;;;6158431;23;1916;-82
2020/12/07 02:30:49;;;;;;;;;;;;;;;;;;6175433;23;1147;-82
2020/12/07 02:33:24;;;;;;;;;;;;;;;;;;6160790;23;1104;-81
2020/12/07 02:38:49;;;;;;;;;;;;;;;;;;6111753;23;1650;-82
2020/12/07 02:50:48;;;;;;;;;;;;;;;;;;6147531;23;1689;-83
2020/12/07 02:56:42;;;;;;;;;;;;;;;;;;6114362;23;1155;-82
2020/12/07 02:59:25;;;;;;;;;;;;;;;;;;6150335;23;1141;-82
2020/12/07 03:07:50;;;;;;;;;;;;;;;;;;6003611;23;10861;-82
2020/12/07 03:10:20;;;;;;;;;;;;;;;;;;6116071;23;1099;-83
2020/12/07 03:12:54;;;;;;;;;;;;;;;;;;6172887;23;1604;-82
2020/12/07 07:48:28;;;;;;;;;;;;;;;;;;6147482;23;1866;-82
2020/12/07 07:57:42;;;;;;;;;;;;;;;;;;6032611;23;1099;-82
2020/12/07 12:22:27;;;;;;;;;;;;;;;;;;6149193;23;825;-82
2020/12/07 12:30:32;;;;;;;;;;;;;;;;;;6139758;23;1635;-80
2020/12/07 12:33:15;;;;;;;;;;;;;;;;;;6139828;23;1494;-81
2020/12/07 12:35:43;;;;;;;;;;;;;;;;;;6138595;23;1116;-80
2020/12/07 12:38:20;;;;;;;;;;;;;;;;;;6136372;23;1369;-80
2020/12/07 12:41:18;;;;;;;;;;;;;;;;;;6133960;23;1100;-81
2020/12/07 12:46:38;;;;;;;;;;;;;;;;;;6138396;23;1952;-81
2020/12/07 12:49:06;;;;;;;;;;;;;;;;;;6142533;23;1076;-81
2020/12/07 12:51:43;;;;;;;;;;;;;;;;;;6138201;23;1116;-81
2020/12/07 12:54:11;;;;;;;;;;;;;;;;;;6139398;23;1095;-80
2020/12/07 12:56:40;;;;;;;;;;;;;;;;;;6138884;23;1122;-81
2020/12/07 12:59:18;;;;;;;;;;;;;;;;;;6139818;23;1086;-81
2020/12/07 13:01:50;;;;;;;;;;;;;;;;;;6135992;23;1578;-81
2020/12/07 13:04:21;;;;;;;;;;;;;;;;;;6138097;23;1273;-81
2020/12/07 13:09:33;;;;;;;;;;;;;;;;;;6135236;23;1573;-80
2020/12/07 13:12:03;;;;;;;;;;;;;;;;;;6134004;23;1560;-80
2020/12/07 13:14:35;;;;;;;;;;;;;;;;;;6132580;23;1131;-80
2020/12/07 13:17:17;;;;;;;;;;;;;;;;;;6135000;23;1354;-81
2020/12/07 13:19:47;;;;;;;;;;;;;;;;;;6109985;23;1399;-80
2020/12/07 13:22:25;;;;;;;;;;;;;;;;;;6136496;23;1143;-80
2020/12/07 13:25:01;;;;;;;;;;;;;;;;;;6137631;23;1134;-79
2020/12/07 13:30:23;;;;;;;;;;;;;;;;;;6131239;23;1536;-79
2020/12/07 13:32:52;;;;;;;;;;;;;;;;;;6130219;23;1148;-80
2020/12/07 13:35:19;;;;;;;;;;;;;;;;;;6129695;23;1040;-81
2020/12/07 13:37:48;;;;;;;;;;;;;;;;;;6129856;23;1028;-80
2020/12/07 13:40:15;;;;;;;;;;;;;;;;;;6132386;23;1631;-81
2020/12/07 13:42:44;;;;;;;;;;;;;;;;;;6129652;23;1155;-79
2020/12/07 13:45:14;;;;;;;;;;;;;;;;;;6128667;23;1204;-79
2020/12/07 13:47:41;;;;;;;;;;;;;;;;;;6127142;23;1917;-79
2020/12/07 13:50:10;;;;;;;;;;;;;;;;;;6102224;23;1509;-81
2020/12/07 13:52:38;;;;;;;;;;;;;;;;;;6126375;23;1090;-78
2020/12/07 13:55:04;;;;;;;;;;;;;;;;;;6127126;23;1162;-79
2020/12/07 13:57:30;;;;;;;;;;;;;;;;;;6125068;23;1104;-79
2020/12/07 13:59:56;;;;;;;;;;;;;;;;;;6124849;23;1237;-78
2020/12/07 14:02:23;;;;;;;;;;;;;;;;;;6125274;23;1098;-78
2020/12/07 14:04:53;;;;;;;;;;;;;;;;;;6125897;23;1156;-79
2020/12/07 14:07:19;;;;;;;;;;;;;;;;;;6099712;23;1870;-79
2020/12/07 14:09:46;;;;;;;;;;;;;;;;;;6124779;23;1096;-78
2020/12/07 14:12:12;;;;;;;;;;;;;;;;;;6124417;23;1083;-78
2020/12/07 14:14:38;;;;;;;;;;;;;;;;;;6126842;23;1319;-80
2020/12/07 14:17:10;;;;;;;;;;;;;;;;;;6125007;23;1510;-78
2020/12/07 14:19:46;;;;;;;;;;;;;;;;;;6125344;23;1221;-77
2020/12/07 14:25:15;;;;;;;;;;;;;;;;;;6126405;23;759;-78
2020/12/07 14:39:05;;;;;;;;;;;;;;;;;;6035338;23;792;-79
2020/12/07 14:41:31;;;;;;;;;;;;;;;;;;6017979;23;1156;-79
2020/12/07 14:43:57;;;;;;;;;;;;;;;;;;6034691;23;1384;-78
2020/12/07 14:46:25;;;;;;;;;;;;;;;;;;6036874;23;1048;-77
2020/12/07 14:48:51;;;;;;;;;;;;;;;;;;6035304;23;1890;-78
2020/12/07 14:51:27;;;;;;;;;;;;;;;;;;6035192;23;989;-78
2020/12/07 14:53:58;;;;;;;;;;;;;;;;;;6034830;23;1156;-78
2020/12/07 14:56:34;;;;;;;;;;;;;;;;;;6011388;23;1097;-78
2020/12/07 15:07:26;;;;;;;;;;;;;;;;;;5925488;24;1874;-78
2020/12/07 15:13:49;;;;;;;;;;;;;;;;;;5973793;24;1199;-79
2020/12/07 15:15:35;;;;;;;;;;;;;;;;;;5979438;24;1173;-79
2020/12/07 15:18:02;;;;;;;;;;;;;;;;;;5979372;24;1162;-78
2020/12/07 15:20:28;;;;;;;;;;;;;;;;;;5977979;24;1283;-79
2020/12/07 15:22:55;;;;;;;;;;;;;;;;;;5978466;24;1612;-79
2020/12/07 15:25:21;;;;;;;;;;;;;;;;;;5977912;24;1093;-79
2020/12/07 15:27:47;;;;;;;;;;;;;;;;;;5976732;24;1898;-78
2020/12/07 15:30:13;;;;;;;;;;;;;;;;;;5978770;24;1179;-78
2020/12/07 15:32:39;;;;;;;;;;;;;;;;;;5977662;24;1112;-80
2020/12/07 15:35:05;;;;;;;;;;;;;;;;;;5978293;24;894;-78
2020/12/07 15:37:31;;;;;;;;;;;;;;;;;;5979744;23;1107;-79
2020/12/07 15:39:58;;;;;;;;;;;;;;;;;;6063541;23;1104;-78
2020/12/07 15:42:24;;;;;;;;;;;;;;;;;;6061663;23;1107;-77
2020/12/07 15:44:50;;;;;;;;;;;;;;;;;;6100423;23;10247;-79
2020/12/07 15:47:16;;;;;;;;;;;;;;;;;;6122958;23;1960;-78
2020/12/07 15:49:42;;;;;;;;;;;;;;;;;;6123122;23;1072;-79
2020/12/07 15:52:08;;;;;;;;;;;;;;;;;;6124538;23;1040;-78
2020/12/07 15:54:34;;;;;;;;;;;;;;;;;;6097127;23;1481;-79
2020/12/07 15:57:01;;;;;;;;;;;;;;;;;;6097172;23;1335;-79
2020/12/07 15:59:27;;;;;;;;;;;;;;;;;;6124146;23;1557;-79
2020/12/07 16:01:54;;;;;;;;;;;;;;;;;;6123359;23;1130;-78
2020/12/07 16:04:20;;;;;;;;;;;;;;;;;;6124577;23;1105;-78
2020/12/07 16:06:48;;;;;;;;;;;;;;;;;;6122683;23;1893;-79
2020/12/07 16:09:14;;;;;;;;;;;;;;;;;;6122300;23;1143;-80
2020/12/07 16:11:41;;;;;;;;;;;;;;;;;;6123213;23;1245;-78
2020/12/07 16:14:07;;;;;;;;;;;;;;;;;;6121792;23;933;-78
2020/12/07 16:16:33;;;;;;;;;;;;;;;;;;6122561;23;1071;-79
2020/12/07 16:19:00;;;;;;;;;;;;;;;;;;6122891;23;1237;-78
2020/12/07 16:21:26;;;;;;;;;;;;;;;;;;6122181;23;1151;-77
2020/12/07 16:23:52;;;;;;;;;;;;;;;;;;6096362;23;1724;-79
2020/12/07 16:26:18;;;;;;;;;;;;;;;;;;6122240;23;1136;-78
2020/12/07 16:28:44;;;;;;;;;;;;;;;;;;6121430;23;1889;-79
2020/12/07 16:31:12;;;;;;;;;;;;;;;;;;6123436;23;1008;-79
2020/12/07 16:33:38;;;;;;;;;;;;;;;;;;6121234;23;1197;-79
2020/12/07 16:36:06;;;;;;;;;;;;;;;;;;6121253;23;1328;-79
2020/12/07 16:38:32;;;;;;;;;;;;;;;;;;6121166;23;1119;-78
2020/12/07 16:40:58;;;;;;;;;;;;;;;;;;6122807;23;1079;-78
2020/12/07 16:43:24;;;;;;;;;;;;;;;;;;6122663;23;1142;-79
2020/12/07 16:45:50;;;;;;;;;;;;;;;;;;6122191;23;1004;-80
2020/12/07 16:48:18;;;;;;;;;;;;;;;;;;6122040;23;1972;-79
2020/12/07 16:50:44;;;;;;;;;;;;;;;;;;6121752;23;1038;-79
2020/12/07 16:53:10;;;;;;;;;;;;;;;;;;6097866;23;1128;-79
2020/12/07 16:55:37;;;;;;;;;;;;;;;;;;6124575;23;1046;-78
2020/12/07 16:58:05;;;;;;;;;;;;;;;;;;6123578;23;1135;-80
2020/12/07 17:00:31;;;;;;;;;;;;;;;;;;6123482;23;1154;-79
2020/12/07 17:02:57;;;;;;;;;;;;;;;;;;6121857;23;1414;-79
2020/12/07 17:05:25;;;;;;;;;;;;;;;;;;6122095;23;1130;-79
2020/12/07 17:07:51;;;;;;;;;;;;;;;;;;6123613;23;1905;-79
2020/12/07 17:10:17;;;;;;;;;;;;;;;;;;6098985;23;1057;-78
2020/12/07 17:12:43;;;;;;;;;;;;;;;;;;6123529;23;1052;-79
2020/12/07 17:15:09;;;;;;;;;;;;;;;;;;6124317;23;1144;-79
2020/12/07 17:17:35;;;;;;;;;;;;;;;;;;6124182;23;1139;-79
2020/12/07 17:20:01;;;;;;;;;;;;;;;;;;6123564;23;1336;-79
2020/12/07 17:22:29;;;;;;;;;;;;;;;;;;6124513;23;1212;-78
2020/12/07 17:24:55;;;;;;;;;;;;;;;;;;6125063;23;1059;-79
2020/12/07 17:27:21;;;;;;;;;;;;;;;;;;6123090;23;1897;-78
2020/12/07 17:29:47;;;;;;;;;;;;;;;;;;6124697;23;1064;-79
2020/12/07 17:32:14;;;;;;;;;;;;;;;;;;6124216;23;1177;-79
2020/12/07 17:34:40;;;;;;;;;;;;;;;;;;6122384;23;1092;-78
2020/12/07 17:37:06;;;;;;;;;;;;;;;;;;6122327;23;1579;-79
2020/12/07 17:39:33;;;;;;;;;;;;;;;;;;6123916;23;1044;-78
2020/12/07 17:41:59;;;;;;;;;;;;;;;;;;6122887;23;1024;-79
2020/12/07 17:44:25;;;;;;;;;;;;;;;;;;6123190;23;1199;-79
2020/12/07 17:46:51;;;;;;;;;;;;;;;;;;6119991;23;966;-79
2020/12/07 17:49:18;;;;;;;;;;;;;;;;;;6114349;23;1897;-79
2020/12/07 17:51:44;;;;;;;;;;;;;;;;;;6117762;23;1155;-79
2020/12/07 17:54:10;;;;;;;;;;;;;;;;;;6120337;23;1608;-78
2020/12/07 17:56:39;;;;;;;;;;;;;;;;;;6120855;23;1075;-79
2020/12/07 17:59:06;;;;;;;;;;;;;;;;;;6121675;23;1038;-79
2020/12/07 18:01:32;;;;;;;;;;;;;;;;;;6120411;23;1060;-79
2020/12/07 18:03:58;;;;;;;;;;;;;;;;;;6119865;23;982;-78
2020/12/07 18:06:25;;;;;;;;;;;;;;;;;;6120837;23;1453;-78
2020/12/07 18:08:51;;;;;;;;;;;;;;;;;;6120578;23;1924;-79
2020/12/07 18:11:17;;;;;;;;;;;;;;;;;;6119588;23;1163;-78
2020/12/07 18:13:45;;;;;;;;;;;;;;;;;;6120853;23;1017;-78
2020/12/07 18:16:11;;;;;;;;;;;;;;;;;;6123387;23;1043;-79
2020/12/07 18:18:37;;;;;;;;;;;;;;;;;;6121152;23;1064;-79
2020/12/07 18:21:03;;;;;;;;;;;;;;;;;;6121981;23;1280;-79
2020/12/07 18:23:30;;;;;;;;;;;;;;;;;;6122560;23;1674;-78
2020/12/07 18:25:56;;;;;;;;;;;;;;;;;;6097019;23;1366;-78
2020/12/07 18:28:22;;;;;;;;;;;;;;;;;;6123403;23;1950;-78
2020/12/07 18:30:49;;;;;;;;;;;;;;;;;;6123501;23;1036;-80
2020/12/07 18:33:15;;;;;;;;;;;;;;;;;;6123312;23;1056;-80
2020/12/07 18:35:41;;;;;;;;;;;;;;;;;;6096955;23;1624;-78
2020/12/07 18:38:08;;;;;;;;;;;;;;;;;;6120331;23;1033;-79
2020/12/07 18:40:34;;;;;;;;;;;;;;;;;;6123114;23;1100;-80
2020/12/07 18:43:00;;;;;;;;;;;;;;;;;;6121744;23;1056;-79
2020/12/07 18:45:27;;;;;;;;;;;;;;;;;;6121876;23;1115;-78
2020/12/07 18:47:54;;;;;;;;;;;;;;;;;;6120717;23;1937;-79
2020/12/07 18:50:21;;;;;;;;;;;;;;;;;;6120973;23;1231;-79
2020/12/07 18:52:47;;;;;;;;;;;;;;;;;;6121993;23;1205;-78
2020/12/07 18:55:13;;;;;;;;;;;;;;;;;;6095574;23;1323;-79
2020/12/07 18:57:39;;;;;;;;;;;;;;;;;;6121732;23;1247;-79
2020/12/07 19:00:11;;;;;;;;;;;;;;;;;;6095043;23;1571;-78
2020/12/07 19:02:37;;;;;;;;;;;;;;;;;;6120407;23;1050;-80
2020/12/07 19:05:05;;;;;;;;;;;;;;;;;;6119912;23;1321;-79
2020/12/07 19:07:31;;;;;;;;;;;;;;;;;;6120677;23;1952;-78
2020/12/07 19:09:57;;;;;;;;;;;;;;;;;;6120942;23;1111;-79
2020/12/07 19:12:24;;;;;;;;;;;;;;;;;;6121408;23;1070;-78
2020/12/07 19:14:50;;;;;;;;;;;;;;;;;;6120916;23;1155;-77
2020/12/07 19:17:16;;;;;;;;;;;;;;;;;;6119099;23;1103;-79
2020/12/07 19:19:44;;;;;;;;;;;;;;;;;;6119889;23;1203;-78
2020/12/07 19:22:11;;;;;;;;;;;;;;;;;;6120351;23;1096;-78
2020/12/07 19:24:37;;;;;;;;;;;;;;;;;;6120175;23;1108;-79
2020/12/07 19:27:04;;;;;;;;;;;;;;;;;;6120108;23;1440;-79
2020/12/07 19:29:30;;;;;;;;;;;;;;;;;;6119556;23;1897;-78
2020/12/07 19:31:56;;;;;;;;;;;;;;;;;;6119868;23;1065;-78
2020/12/07 19:34:22;;;;;;;;;;;;;;;;;;6117448;23;10654;-78
2020/12/07 19:36:53;;;;;;;;;;;;;;;;;;6092896;23;1054;-79
2020/12/07 19:39:21;;;;;;;;;;;;;;;;;;6120125;23;1053;-80
2020/12/07 19:41:47;;;;;;;;;;;;;;;;;;6121060;23;1152;-80
2020/12/07 19:44:14;;;;;;;;;;;;;;;;;;6121731;23;1068;-78
2020/12/07 19:46:40;;;;;;;;;;;;;;;;;;6093065;23;1359;-79
2020/12/07 19:49:07;;;;;;;;;;;;;;;;;;6121338;23;1952;-78
2020/12/07 19:51:34;;;;;;;;;;;;;;;;;;6123095;23;1543;-79
2020/12/07 19:54:00;;;;;;;;;;;;;;;;;;6122049;23;998;-79
2020/12/07 19:56:30;;;;;;;;;;;;;;;;;;6118141;23;1615;-79
2020/12/07 19:58:56;;;;;;;;;;;;;;;;;;6124216;23;1493;-80
2020/12/07 20:01:22;;;;;;;;;;;;;;;;;;6124511;23;1465;-80
2020/12/07 20:03:48;;;;;;;;;;;;;;;;;;6123405;23;1163;-80
2020/12/07 20:06:15;;;;;;;;;;;;;;;;;;6123149;23;1088;-80
2020/12/07 20:08:41;;;;;;;;;;;;;;;;;;6122069;23;1935;-79
2020/12/07 20:11:07;;;;;;;;;;;;;;;;;;6120524;23;1146;-80
2020/12/07 20:13:34;;;;;;;;;;;;;;;;;;6121720;23;1118;-79
2020/12/07 20:16:00;;;;;;;;;;;;;;;;;;6121706;23;1051;-80
2020/12/07 20:18:26;;;;;;;;;;;;;;;;;;6121420;23;1494;-79
2020/12/07 20:20:53;;;;;;;;;;;;;;;;;;6122927;23;1233;-79
2020/12/07 20:23:19;;;;;;;;;;;;;;;;;;6121415;23;1492;-80
2020/12/07 20:25:45;;;;;;;;;;;;;;;;;;6120986;23;1556;-80
2020/12/07 20:28:11;;;;;;;;;;;;;;;;;;6121698;23;1952;-79
2020/12/07 20:30:40;;;;;;;;;;;;;;;;;;6121004;23;1062;-79
2020/12/07 20:33:07;;;;;;;;;;;;;;;;;;6095445;23;996;-78
2020/12/07 20:35:33;;;;;;;;;;;;;;;;;;6121199;23;1147;-79
2020/12/07 20:37:59;;;;;;;;;;;;;;;;;;6119527;23;1108;-80
2020/12/07 20:40:25;;;;;;;;;;;;;;;;;;6122285;23;1118;-79
2020/12/07 20:42:51;;;;;;;;;;;;;;;;;;6122331;23;1107;-77
2020/12/07 20:45:17;;;;;;;;;;;;;;;;;;6121679;23;1228;-80
2020/12/07 20:47:45;;;;;;;;;;;;;;;;;;6122217;23;1915;-79
2020/12/07 20:50:12;;;;;;;;;;;;;;;;;;6123997;23;1366;-80
2020/12/07 20:52:38;;;;;;;;;;;;;;;;;;6123193;23;1159;-79
2020/12/07 20:55:04;;;;;;;;;;;;;;;;;;6121803;23;1366;-80
2020/12/07 20:57:30;;;;;;;;;;;;;;;;;;6120764;23;1062;-78
2020/12/07 20:59:56;;;;;;;;;;;;;;;;;;6121389;23;1155;-79
2020/12/07 21:02:22;;;;;;;;;;;;;;;;;;6121038;23;1055;-79
2020/12/07 21:04:49;;;;;;;;;;;;;;;;;;6121006;23;1052;-79
2020/12/07 21:07:15;;;;;;;;;;;;;;;;;;6121929;23;1090;-79
2020/12/07 21:09:41;;;;;;;;;;;;;;;;;;6121054;23;1933;-80
2020/12/07 21:12:08;;;;;;;;;;;;;;;;;;6120259;23;1107;-79
2020/12/07 21:14:34;;;;;;;;;;;;;;;;;;6121304;23;1023;-80
2020/12/07 21:17:01;;;;;;;;;;;;;;;;;;6121163;23;1154;-78
2020/12/07 21:19:27;;;;;;;;;;;;;;;;;;6122791;23;1087;-79
2020/12/07 21:21:54;;;;;;;;;;;;;;;;;;6123198;23;1016;-79
2020/12/07 21:24:20;;;;;;;;;;;;;;;;;;6121647;23;1516;-79
2020/12/07 21:26:46;;;;;;;;;;;;;;;;;;6119961;23;1123;-80
2020/12/07 21:29:13;;;;;;;;;;;;;;;;;;6122987;23;1940;-79
2020/12/07 21:31:41;;;;;;;;;;;;;;;;;;6124005;23;1551;-78
2020/12/07 21:34:07;;;;;;;;;;;;;;;;;;6123841;23;1552;-80
2020/12/07 21:36:33;;;;;;;;;;;;;;;;;;6096647;23;1453;-79
2020/12/07 21:39:00;;;;;;;;;;;;;;;;;;6122515;23;1197;-79
2020/12/07 21:41:32;;;;;;;;;;;;;;;;;;6122885;23;1332;-80
2020/12/07 21:43:58;;;;;;;;;;;;;;;;;;6126349;23;1148;-80
2020/12/07 21:46:23;;;;;;;;;;;;;;;;;;6123220;23;1090;-79
2020/12/07 21:48:50;;;;;;;;;;;;;;;;;;6122719;23;1893;-79
2020/12/07 21:51:19;;;;;;;;;;;;;;;;;;6123698;23;1325;-79
2020/12/07 21:53:46;;;;;;;;;;;;;;;;;;6123002;23;1098;-79
2020/12/07 21:56:13;;;;;;;;;;;;;;;;;;6122988;23;1052;-79
2020/12/07 21:58:39;;;;;;;;;;;;;;;;;;6123455;23;1413;-80
2020/12/07 22:01:05;;;;;;;;;;;;;;;;;;6122827;23;1797;-78
2020/12/07 22:03:31;;;;;;;;;;;;;;;;;;6123703;23;1103;-79
2020/12/07 22:05:58;;;;;;;;;;;;;;;;;;6123971;23;1593;-80
2020/12/07 22:08:25;;;;;;;;;;;;;;;;;;6123727;23;1940;-79
2020/12/07 22:10:52;;;;;;;;;;;;;;;;;;6123079;23;1018;-80
2020/12/07 22:13:19;;;;;;;;;;;;;;;;;;6124636;23;1481;-79
2020/12/07 22:15:45;;;;;;;;;;;;;;;;;;6123125;23;945;-78
2020/12/07 22:18:11;;;;;;;;;;;;;;;;;;6121960;23;1148;-79
2020/12/07 22:20:37;;;;;;;;;;;;;;;;;;6123016;23;1308;-79
2020/12/07 22:23:03;;;;;;;;;;;;;;;;;;6123699;23;1155;-79
2020/12/07 22:25:29;;;;;;;;;;;;;;;;;;6122406;23;1233;-78
2020/12/07 22:27:55;;;;;;;;;;;;;;;;;;6122617;23;1946;-78
2020/12/07 22:30:25;;;;;;;;;;;;;;;;;;6096073;23;1323;-79
2020/12/07 22:32:51;;;;;;;;;;;;;;;;;;6121909;23;1404;-79
2020/12/07 22:35:17;;;;;;;;;;;;;;;;;;6122025;23;1193;-78
2020/12/07 22:37:43;;;;;;;;;;;;;;;;;;6121671;23;1558;-80
2020/12/07 22:40:09;;;;;;;;;;;;;;;;;;6123100;23;1163;-80
2020/12/07 22:42:35;;;;;;;;;;;;;;;;;;6123378;23;1082;-79
2020/12/07 22:45:01;;;;;;;;;;;;;;;;;;6122251;23;1315;-79
2020/12/07 22:47:29;;;;;;;;;;;;;;;;;;6121791;23;1020;-80
2020/12/07 22:49:55;;;;;;;;;;;;;;;;;;6121705;23;1958;-79
2020/12/07 22:52:20;;;;;;;;;;;;;;;;;;6122485;23;1401;-79
2020/12/07 22:54:47;;;;;;;;;;;;;;;;;;6121850;23;1302;-79
2020/12/07 22:57:13;;;;;;;;;;;;;;;;;;6122732;23;1125;-78
2020/12/07 22:59:39;;;;;;;;;;;;;;;;;;6122887;23;1080;-79
2020/12/07 23:02:06;;;;;;;;;;;;;;;;;;6122871;23;1094;-78
2020/12/07 23:04:33;;;;;;;;;;;;;;;;;;6097066;23;1143;-80
2020/12/07 23:06:59;;;;;;;;;;;;;;;;;;6122247;23;1140;-79
2020/12/07 23:09:25;;;;;;;;;;;;;;;;;;6122581;23;1900;-79
2020/12/07 23:11:51;;;;;;;;;;;;;;;;;;6123053;23;1564;-79
2020/12/07 23:14:17;;;;;;;;;;;;;;;;;;6121854;23;1094;-79
2020/12/07 23:16:43;;;;;;;;;;;;;;;;;;6122944;23;1066;-78
2020/12/07 23:19:10;;;;;;;;;;;;;;;;;;6124703;23;1178;-79
2020/12/07 23:21:37;;;;;;;;;;;;;;;;;;6123926;23;1221;-79
2020/12/07 23:24:03;;;;;;;;;;;;;;;;;;6123138;23;1163;-79
2020/12/07 23:26:31;;;;;;;;;;;;;;;;;;6098265;23;1311;-78
2020/12/07 23:28:57;;;;;;;;;;;;;;;;;;6122996;23;1929;-79
2020/12/07 23:31:23;;;;;;;;;;;;;;;;;;6123834;23;1303;-80
2020/12/07 23:33:49;;;;;;;;;;;;;;;;;;6097880;23;1352;-80
2020/12/07 23:36:15;;;;;;;;;;;;;;;;;;6123353;23;1204;-80
2020/12/07 23:38:42;;;;;;;;;;;;;;;;;;6121216;23;1342;-80
2020/12/07 23:41:08;;;;;;;;;;;;;;;;;;6122383;23;1557;-79
2020/12/07 23:43:34;;;;;;;;;;;;;;;;;;6123689;23;1684;-80
2020/12/07 23:46:02;;;;;;;;;;;;;;;;;;6123196;23;1303;-79
2020/12/07 23:48:28;;;;;;;;;;;;;;;;;;6124074;23;1897;-78
2020/12/07 23:50:54;;;;;;;;;;;;;;;;;;6123468;23;1028;-79
2020/12/07 23:53:20;;;;;;;;;;;;;;;;;;6123491;23;1009;-79
2020/12/07 23:55:47;;;;;;;;;;;;;;;;;;6123447;23;1083;-80
2020/12/07 23:58:13;;;;;;;;;;;;;;;;;;6124647;23;1049;-80
